createdAt,value
2017-11-27T00:00:56.438Z,2.1
2017-11-27T00:02:16.120Z,2.2
2017-11-27T00:03:38.297Z,2.2
2017-11-27T00:04:57.973Z,2.2
2017-11-27T00:06:20.162Z,2.2
2017-11-27T00:07:39.815Z,2.2
2017-11-27T00:08:59.471Z,2.2
2017-11-27T00:10:21.688Z,2.2
2017-11-27T00:11:41.313Z,2.2
2017-11-27T00:13:06.033Z,2.1
2017-11-27T00:14:28.217Z,2.2
2017-11-27T00:15:47.844Z,2.1
2017-11-27T00:17:15.134Z,2.1
2017-11-27T00:18:42.408Z,2.1
2017-11-27T00:20:09.686Z,2.1
2017-11-27T00:21:29.360Z,2
2017-11-27T00:22:56.586Z,2
2017-11-27T00:24:16.208Z,1.9
2017-11-27T00:25:43.463Z,1.9
2017-11-27T00:27:13.229Z,1.9
2017-11-27T00:28:32.863Z,1.9
2017-11-27T00:29:52.520Z,2
2017-11-27T00:31:12.166Z,2
2017-11-27T00:32:31.803Z,1.9
2017-11-27T00:33:54.002Z,1.8
2017-11-27T00:35:13.656Z,1.8
2017-11-27T00:36:38.377Z,1.8
2017-11-27T00:37:58.087Z,1.8
2017-11-27T00:39:25.301Z,1.8
2017-11-27T00:40:49.997Z,1.8
2017-11-27T00:42:12.173Z,1.8
2017-11-27T00:43:31.804Z,1.7
2017-11-27T00:44:51.439Z,1.7
2017-11-27T00:46:11.112Z,1.6
2017-11-27T00:47:30.751Z,1.6
2017-11-27T00:48:50.383Z,1.7
2017-11-27T00:50:17.622Z,1.7
2017-11-27T00:51:44.844Z,1.7
2017-11-27T00:53:09.605Z,1.6
2017-11-27T00:54:34.317Z,1.6
2017-11-27T00:55:53.983Z,1.6
2017-11-27T00:57:13.673Z,1.6
2017-11-27T00:58:35.909Z,1.6
2017-11-27T00:59:55.545Z,1.7
2017-11-27T01:01:22.768Z,1.7
2017-11-27T01:02:42.397Z,1.7
2017-11-27T01:04:02.049Z,1.6
2017-11-27T01:05:21.722Z,1.6
2017-11-27T01:06:43.970Z,1.6
2017-11-27T01:08:03.639Z,1.6
2017-11-27T01:09:23.269Z,1.6
2017-11-27T01:10:45.454Z,1.6
2017-11-27T01:12:05.090Z,1.6
2017-11-27T01:13:27.250Z,1.6
2017-11-27T01:14:49.444Z,1.7
2017-11-27T01:16:11.622Z,1.7
2017-11-27T01:17:36.357Z,1.5
2017-11-27T01:18:58.573Z,1.3
2017-11-27T01:20:18.288Z,1.1
2017-11-27T01:21:50.621Z,1
2017-11-27T01:23:10.268Z,0.9
2017-11-27T01:24:29.949Z,0.8
2017-11-27T01:25:54.678Z,0.8
2017-11-27T01:27:14.310Z,0.8
2017-11-27T01:28:33.980Z,0.8
2017-11-27T01:29:56.136Z,0.8
2017-11-27T01:31:18.359Z,0.6
2017-11-27T01:32:37.987Z,0.5
2017-11-27T01:33:57.658Z,0.4
2017-11-27T01:35:17.293Z,0.4
2017-11-27T01:36:36.939Z,0.4
2017-11-27T01:37:56.581Z,0.4
2017-11-27T01:39:23.858Z,0.3
2017-11-27T01:40:56.133Z,0.3
2017-11-27T01:42:18.328Z,0.5
2017-11-27T01:43:37.960Z,0.5
2017-11-27T01:45:05.235Z,0.5
2017-11-27T01:46:37.520Z,0.6
2017-11-27T01:47:59.749Z,0.6
2017-11-27T01:49:19.387Z,0.5
2017-11-27T01:50:44.090Z,0.5
2017-11-27T01:52:03.758Z,0.5
2017-11-27T01:53:25.915Z,0.4
2017-11-27T01:54:53.176Z,0.3
2017-11-27T01:56:15.339Z,0.3
2017-11-27T01:57:37.511Z,0.4
2017-11-27T01:58:59.693Z,0.4
2017-11-27T02:00:26.948Z,0.5
2017-11-27T02:01:59.281Z,0.6
2017-11-27T02:03:23.980Z,0.5
2017-11-27T02:04:48.747Z,0.5
2017-11-27T02:06:08.433Z,0.4
2017-11-27T02:07:38.238Z,0.5
2017-11-27T02:08:57.907Z,0.6
2017-11-27T02:10:17.604Z,0.6
2017-11-27T02:11:37.244Z,0.5
2017-11-27T02:13:01.933Z,0.6
2017-11-27T02:14:21.611Z,0.5
2017-11-27T02:15:43.807Z,0.5
2017-11-27T02:17:03.519Z,0.5
2017-11-27T02:18:30.791Z,0.6
2017-11-27T02:19:52.959Z,0.7
2017-11-27T02:21:20.305Z,0.7
2017-11-27T02:22:39.990Z,0.7
2017-11-27T02:23:59.650Z,0.8
2017-11-27T02:25:21.826Z,1
2017-11-27T02:26:41.466Z,1.1
2017-11-27T02:28:08.733Z,1.3
2017-11-27T02:29:28.427Z,1.3
2017-11-27T02:30:53.158Z,1.4
2017-11-27T02:32:12.803Z,1.4
2017-11-27T02:33:32.499Z,1.5
2017-11-27T02:35:04.839Z,1.5
2017-11-27T02:36:27.067Z,1.5
2017-11-27T02:37:46.769Z,1.5
2017-11-27T02:39:11.480Z,1.5
2017-11-27T02:40:41.259Z,1.5
2017-11-27T02:42:00.902Z,1.6
2017-11-27T02:43:20.565Z,1.6
2017-11-27T02:44:45.256Z,1.7
2017-11-27T02:46:04.926Z,1.7
2017-11-27T02:47:24.588Z,1.7
2017-11-27T02:48:46.757Z,1.7
2017-11-27T02:50:08.960Z,1.7
2017-11-27T02:51:28.652Z,1.7
2017-11-27T02:52:55.875Z,1.7
2017-11-27T02:54:20.624Z,1.7
2017-11-27T02:55:40.323Z,1.7
2017-11-27T02:56:59.996Z,1.7
2017-11-27T02:58:19.644Z,1.7
2017-11-27T02:59:41.862Z,1.7
2017-11-27T03:01:06.556Z,1.7
2017-11-27T03:02:28.730Z,1.7
2017-11-27T03:03:48.434Z,1.7
2017-11-27T03:05:10.631Z,1.7
2017-11-27T03:06:30.288Z,1.7
2017-11-27T03:07:49.936Z,1.7
2017-11-27T03:09:17.186Z,1.7
2017-11-27T03:10:39.399Z,1.7
2017-11-27T03:11:59.042Z,1.8
2017-11-27T03:13:21.210Z,1.8
2017-11-27T03:14:40.843Z,1.7
2017-11-27T03:16:03.072Z,1.7
2017-11-27T03:17:32.847Z,1.6
2017-11-27T03:19:00.117Z,1.5
2017-11-27T03:20:24.827Z,1.5
2017-11-27T03:21:44.510Z,1.6
2017-11-27T03:23:04.181Z,1.5
2017-11-27T03:24:23.826Z,1.6
2017-11-27T03:25:43.491Z,1.6
2017-11-27T03:27:08.219Z,1.6
2017-11-27T03:28:35.457Z,1.6
2017-11-27T03:29:55.092Z,1.7
2017-11-27T03:31:17.256Z,1.7
2017-11-27T03:32:36.894Z,1.7
2017-11-27T03:33:56.604Z,1.8
2017-11-27T03:35:16.238Z,1.8
2017-11-27T03:36:38.453Z,1.8
2017-11-27T03:37:58.123Z,1.8
2017-11-27T03:39:20.345Z,1.8
2017-11-27T03:40:47.628Z,1.9
2017-11-27T03:42:14.894Z,1.9
2017-11-27T03:43:34.534Z,1.9
2017-11-27T03:45:01.829Z,1.8
2017-11-27T03:46:26.558Z,1.9
2017-11-27T03:47:48.777Z,1.8
2017-11-27T03:49:13.511Z,1.8
2017-11-27T03:50:35.683Z,1.9
2017-11-27T03:51:55.371Z,1.8
2017-11-27T03:53:14.998Z,1.9
2017-11-27T03:54:34.641Z,1.8
2017-11-27T03:55:54.336Z,1.9
2017-11-27T03:57:13.996Z,1.9
2017-11-27T03:58:33.628Z,1.9
2017-11-27T03:59:55.803Z,1.9
2017-11-27T04:01:20.514Z,1.9
2017-11-27T04:02:47.768Z,1.9
2017-11-27T04:04:17.533Z,1.9
2017-11-27T04:05:39.754Z,1.9
2017-11-27T04:06:59.373Z,1.9
2017-11-27T04:08:24.064Z,1.9
2017-11-27T04:09:48.773Z,1.9
2017-11-27T04:11:10.964Z,1.8
2017-11-27T04:12:33.164Z,1.8
2017-11-27T04:14:00.430Z,1.8
2017-11-27T04:15:22.626Z,1.8
2017-11-27T04:16:42.260Z,1.8
2017-11-27T04:18:04.437Z,1.8
2017-11-27T04:19:24.078Z,1.8
2017-11-27T04:20:46.239Z,1.6
2017-11-27T04:22:13.490Z,1.6
2017-11-27T04:23:35.573Z,1.6
2017-11-27T04:24:57.792Z,1.5
2017-11-27T04:26:17.435Z,1.5
2017-11-27T04:27:37.112Z,1.5
2017-11-27T04:29:11.935Z,1.5
2017-11-27T04:30:39.186Z,1.4
2017-11-27T04:31:58.853Z,1.4
2017-11-27T04:33:21.033Z,1.4
2017-11-27T04:34:40.675Z,1.3
2017-11-27T04:36:00.302Z,1.3
2017-11-27T04:37:19.937Z,1.3
2017-11-27T04:38:42.098Z,1.4
2017-11-27T04:40:11.871Z,1.4
2017-11-27T04:41:34.086Z,1.4
2017-11-27T04:42:56.295Z,1.5
2017-11-27T04:44:21.041Z,1.6
2017-11-27T04:45:45.739Z,1.6
2017-11-27T04:47:07.953Z,1.5
2017-11-27T04:48:30.125Z,1.4
2017-11-27T04:50:12.575Z,1.3
2017-11-27T04:51:32.206Z,1.2
2017-11-27T04:52:51.844Z,1.2
2017-11-27T04:54:11.485Z,1.2
2017-11-27T04:55:36.217Z,1.2
2017-11-27T04:56:55.901Z,1.2
2017-11-27T04:58:15.564Z,1.2
2017-11-27T04:59:35.193Z,1.1
2017-11-27T05:00:54.875Z,1
2017-11-27T05:02:19.618Z,1
2017-11-27T05:03:39.262Z,0.9
2017-11-27T05:04:58.896Z,0.8
2017-11-27T05:06:21.090Z,0.8
2017-11-27T05:07:40.725Z,0.7
2017-11-27T05:09:07.978Z,0.8
2017-11-27T05:10:27.661Z,0.7
2017-11-27T05:11:47.347Z,0.7
2017-11-27T05:13:07.000Z,0.7
2017-11-27T05:14:31.691Z,0.7
2017-11-27T05:15:58.919Z,0.8
2017-11-27T05:17:18.567Z,0.8
2017-11-27T05:18:38.268Z,0.8
2017-11-27T05:19:57.978Z,0.9
2017-11-27T05:21:30.324Z,1
2017-11-27T05:22:52.533Z,1.1
2017-11-27T05:24:12.167Z,1.2
2017-11-27T05:25:31.856Z,1.3
2017-11-27T05:26:51.494Z,1.4
2017-11-27T05:28:33.926Z,1.3
2017-11-27T05:29:56.095Z,1.1
2017-11-27T05:31:15.760Z,1.1
2017-11-27T05:32:35.394Z,1.1
2017-11-27T05:33:55.035Z,1.1
2017-11-27T05:35:14.719Z,1
2017-11-27T05:36:34.360Z,1
2017-11-27T05:37:56.516Z,0.9
2017-11-27T05:39:16.183Z,1
2017-11-27T05:40:38.340Z,1
2017-11-27T05:41:58.034Z,1.1
2017-11-27T05:43:20.247Z,1.2
2017-11-27T05:44:42.487Z,1.2
2017-11-27T05:46:07.213Z,1.2
2017-11-27T05:47:34.445Z,1.2
2017-11-27T05:48:54.095Z,1.3
2017-11-27T05:50:13.725Z,1.4
2017-11-27T05:51:35.884Z,1.4
2017-11-27T05:52:55.559Z,1.5
2017-11-27T05:54:15.210Z,1.5
2017-11-27T05:55:39.917Z,1.6
2017-11-27T05:56:59.591Z,1.6
2017-11-27T05:58:21.759Z,1.5
2017-11-27T05:59:46.464Z,1.5
2017-11-27T06:01:08.678Z,1.5
2017-11-27T06:02:50.878Z,1.5
2017-11-27T06:03:57.718Z,1.4
2017-11-27T06:05:17.521Z,1.2
2017-11-27T06:06:37.322Z,1.1
2017-11-27T06:07:57.107Z,1
2017-11-27T06:09:19.368Z,0.9
2017-11-27T06:10:46.723Z,0.9
2017-11-27T06:12:06.525Z,0.8
2017-11-27T06:13:33.865Z,1
2017-11-27T06:14:53.460Z,1
2017-11-27T06:16:13.166Z,1
2017-11-27T06:17:43.020Z,1
2017-11-27T06:19:07.856Z,1
2017-11-27T06:20:30.105Z,1
2017-11-27T06:21:49.821Z,1
2017-11-27T06:23:12.134Z,1
2017-11-27T06:24:34.402Z,1
2017-11-27T06:25:54.102Z,1
2017-11-27T06:27:21.401Z,1.1
2017-11-27T06:28:41.168Z,1.2
2017-11-27T06:30:00.863Z,1.2
2017-11-27T06:31:23.106Z,1.2
2017-11-27T06:32:42.842Z,1.2
2017-11-27T06:34:02.580Z,1.3
2017-11-27T06:35:27.379Z,1.3
2017-11-27T06:36:49.627Z,1.3
2017-11-27T06:38:11.884Z,1.1
2017-11-27T06:39:31.618Z,1
2017-11-27T06:40:51.317Z,1.1
2017-11-27T06:42:16.075Z,1
2017-11-27T06:43:35.776Z,1.1
2017-11-27T06:45:00.601Z,1.1
2017-11-27T06:46:22.837Z,1
2017-11-27T06:47:42.575Z,0.9
2017-11-27T06:49:02.313Z,0.9
2017-11-27T06:50:32.174Z,0.8
2017-11-27T06:51:51.885Z,0.9
2017-11-27T06:53:11.592Z,0.9
2017-11-27T06:54:31.348Z,0.9
2017-11-27T06:55:58.697Z,1
2017-11-27T06:57:18.476Z,1
2017-11-27T06:58:38.186Z,0.9
2017-11-27T06:59:57.885Z,0.9
2017-11-27T07:01:20.123Z,1
2017-11-27T07:02:47.503Z,1
2017-11-27T07:04:07.259Z,1.1
2017-11-27T07:05:26.985Z,1.1
2017-11-27T07:06:51.823Z,1.1
2017-11-27T07:08:14.044Z,1.1
2017-11-27T07:09:33.747Z,1.1
2017-11-27T07:10:53.434Z,1.1
2017-11-27T07:12:13.149Z,1.1
2017-11-27T07:13:40.488Z,1.1
2017-11-27T07:15:07.788Z,1.1
2017-11-27T07:16:30.011Z,1.1
2017-11-27T07:17:49.730Z,1.1
2017-11-27T07:19:09.437Z,1.1
2017-11-27T07:20:31.663Z,1.1
2017-11-27T07:21:53.995Z,1.1
2017-11-27T07:23:13.760Z,1.2
2017-11-27T07:24:33.460Z,1.1
2017-11-27T07:26:00.785Z,1.1
2017-11-27T07:27:28.107Z,1.1
2017-11-27T07:28:52.855Z,1.1
2017-11-27T07:30:30.316Z,1.2
2017-11-27T07:31:52.579Z,1.3
2017-11-27T07:33:19.865Z,1.3
2017-11-27T07:34:47.239Z,1.4
2017-11-27T07:36:07.003Z,1.4
2017-11-27T07:37:31.857Z,1.4
2017-11-27T07:38:51.568Z,1.4
2017-11-27T07:40:18.924Z,1.5
2017-11-27T07:41:43.694Z,1.5
2017-11-27T07:43:05.946Z,1.6
2017-11-27T07:44:28.198Z,1.7
2017-11-27T07:45:50.444Z,1.7
2017-11-27T07:47:15.195Z,1.7
2017-11-27T07:48:37.479Z,1.7
2017-11-27T07:49:57.198Z,1.7
2017-11-27T07:51:19.487Z,1.7
2017-11-27T07:52:44.274Z,1.6
2017-11-27T07:54:06.505Z,1.6
2017-11-27T07:55:26.262Z,1.7
2017-11-27T07:56:51.025Z,1.8
2017-11-27T07:58:13.262Z,1.9
2017-11-27T07:59:32.982Z,1.9
2017-11-27T08:00:52.740Z,1.9
2017-11-27T08:02:17.531Z,2
2017-11-27T08:03:37.259Z,2.1
2017-11-27T08:04:56.993Z,2.3
2017-11-27T08:06:21.773Z,2.5
2017-11-27T08:07:41.492Z,2.7
2017-11-27T08:09:01.267Z,2.7
2017-11-27T08:10:26.030Z,2.8
2017-11-27T08:11:48.246Z,2.9
2017-11-27T08:13:10.543Z,2.8
2017-11-27T08:14:32.765Z,2.8
2017-11-27T08:15:55.053Z,2.8
2017-11-27T08:17:14.779Z,2.8
2017-11-27T08:18:34.496Z,2.8
2017-11-27T08:19:56.758Z,2.6
2017-11-27T08:21:18.985Z,2.6
2017-11-27T08:22:41.233Z,2.8
2017-11-27T08:24:08.558Z,2.8
2017-11-27T08:25:40.912Z,2.8
2017-11-27T08:27:03.127Z,3
2017-11-27T08:28:27.879Z,3
2017-11-27T08:29:47.638Z,3
2017-11-27T08:31:07.357Z,3
2017-11-27T08:32:27.087Z,3
2017-11-27T08:33:49.302Z,2.9
2017-11-27T08:35:09.007Z,2.9
2017-11-27T08:36:33.765Z,2.8
2017-11-27T08:37:53.493Z,2.7
2017-11-27T08:39:13.239Z,2.6
2017-11-27T08:40:32.974Z,2.6
2017-11-27T08:41:52.709Z,2.7
2017-11-27T08:43:14.937Z,2.5
2017-11-27T08:44:42.259Z,2.5
2017-11-27T08:46:02.039Z,2.4
2017-11-27T08:47:29.324Z,2.4
2017-11-27T08:48:56.655Z,2.4
2017-11-27T08:50:16.366Z,2.4
2017-11-27T08:51:46.212Z,2.4
2017-11-27T08:53:05.978Z,2.5
2017-11-27T08:54:28.235Z,2.5
2017-11-27T08:55:58.050Z,2.6
2017-11-27T08:57:20.288Z,2.7
2017-11-27T08:58:42.525Z,2.8
2017-11-27T09:00:02.278Z,2.6
2017-11-27T09:01:22.003Z,2.5
2017-11-27T09:02:59.457Z,2.6
2017-11-27T09:04:21.714Z,2.5
2017-11-27T09:05:43.947Z,2.5
2017-11-27T09:07:08.758Z,2.4
2017-11-27T09:08:31.043Z,2.5
2017-11-27T09:09:53.272Z,2.5
2017-11-27T09:11:12.981Z,2.6
2017-11-27T09:12:32.671Z,2.6
2017-11-27T09:13:54.917Z,2.8
2017-11-27T09:15:14.626Z,3
2017-11-27T09:16:34.346Z,2.9
2017-11-27T09:17:54.057Z,3
2017-11-27T09:19:18.845Z,2.9
2017-11-27T09:20:46.174Z,2.9
2017-11-27T09:22:05.926Z,3.1
2017-11-27T09:23:25.612Z,3.1
2017-11-27T09:24:45.325Z,2.9
2017-11-27T09:26:05.024Z,2.8
2017-11-27T09:27:24.773Z,2.6
2017-11-27T09:28:47.039Z,2.7
2017-11-27T09:30:11.869Z,2.6
2017-11-27T09:31:31.605Z,2.5
2017-11-27T09:32:51.307Z,2.6
2017-11-27T09:34:10.997Z,2.6
2017-11-27T09:35:30.731Z,2.6
2017-11-27T09:36:50.436Z,2.5
2017-11-27T09:38:10.153Z,2.6
2017-11-27T09:39:32.413Z,2.6
2017-11-27T09:40:54.651Z,2.7
2017-11-27T09:42:16.917Z,2.7
2017-11-27T09:43:36.637Z,2.7
2017-11-27T09:44:56.352Z,2.7
2017-11-27T09:46:16.081Z,2.7
2017-11-27T09:47:38.381Z,2.7
2017-11-27T09:48:58.080Z,2.7
2017-11-27T09:50:25.360Z,2.8
2017-11-27T09:51:50.148Z,2.8
2017-11-27T09:53:09.853Z,2.7
2017-11-27T09:54:29.579Z,3
2017-11-27T09:55:56.903Z,2.9
2017-11-27T09:57:19.149Z,2.9
2017-11-27T09:58:38.902Z,3
2017-11-27T10:00:01.196Z,2.9
2017-11-27T10:01:20.901Z,3
2017-11-27T10:02:40.596Z,3
2017-11-27T10:04:00.312Z,2.9
2017-11-27T10:05:30.191Z,2.9
2017-11-27T10:06:52.441Z,3.1
2017-11-27T10:08:14.717Z,3.1
2017-11-27T10:09:34.406Z,2.9
2017-11-27T10:10:54.116Z,2.9
2017-11-27T10:12:16.378Z,3
2017-11-27T10:13:41.174Z,2.9
2017-11-27T10:15:05.993Z,2.7
2017-11-27T10:16:25.746Z,2.7
2017-11-27T10:17:45.445Z,2.7
2017-11-27T10:19:07.677Z,2.7
2017-11-27T10:20:27.366Z,2.7
2017-11-27T10:21:52.136Z,2.7
2017-11-27T10:23:14.376Z,2.8
2017-11-27T10:24:34.117Z,2.9
2017-11-27T10:25:56.419Z,3.1
2017-11-27T10:27:16.203Z,3.2
2017-11-27T10:28:40.975Z,3.2
2017-11-27T10:30:03.271Z,3.3
2017-11-27T10:31:22.998Z,3.3
2017-11-27T10:32:45.268Z,3.2
2017-11-27T10:34:10.036Z,3.3
2017-11-27T10:35:29.721Z,3.3
2017-11-27T10:36:49.427Z,3.3
2017-11-27T10:38:09.164Z,3.3
2017-11-27T10:39:28.859Z,3.2
2017-11-27T10:40:53.662Z,3.4
2017-11-27T10:42:13.378Z,3.4
2017-11-27T10:43:38.159Z,3.6
2017-11-27T10:44:57.862Z,3.5
2017-11-27T10:46:22.624Z,3.4
2017-11-27T10:47:42.334Z,3.5
2017-11-27T10:49:07.179Z,3.5
2017-11-27T10:50:29.457Z,3.5
2017-11-27T10:51:49.162Z,3.5
2017-11-27T10:53:08.855Z,3.5
2017-11-27T10:54:28.606Z,3.6
2017-11-27T10:55:48.343Z,3.6
2017-11-27T10:57:08.033Z,3.5
2017-11-27T10:58:32.832Z,3.5
2017-11-27T10:59:52.596Z,3.7
2017-11-27T11:01:12.295Z,3.6
2017-11-27T11:02:31.997Z,3.5
2017-11-27T11:03:51.732Z,3.6
2017-11-27T11:05:16.581Z,3.6
2017-11-27T11:06:38.818Z,3.6
2017-11-27T11:07:58.529Z,3.5
2017-11-27T11:09:18.286Z,3.4
2017-11-27T11:10:37.991Z,3.5
2017-11-27T11:12:00.215Z,3.4
2017-11-27T11:13:19.917Z,3.5
2017-11-27T11:14:39.637Z,3.6
2017-11-27T11:15:59.413Z,3.5
2017-11-27T11:17:21.718Z,3.3
2017-11-27T11:18:43.984Z,3.2
2017-11-27T11:20:03.753Z,3.1
2017-11-27T11:21:38.642Z,3
2017-11-27T11:23:00.900Z,3.1
2017-11-27T11:24:25.683Z,3.1
2017-11-27T11:25:50.467Z,3.1
2017-11-27T11:27:10.188Z,3.1
2017-11-27T11:28:29.894Z,2.9
2017-11-27T11:29:49.602Z,2.9
2017-11-27T11:31:09.340Z,2.9
2017-11-27T11:32:31.612Z,2.9
2017-11-27T11:33:53.847Z,2.7
2017-11-27T11:35:13.569Z,2.7
2017-11-27T11:36:33.273Z,2.7
2017-11-27T11:37:58.058Z,2.7
2017-11-27T11:39:20.293Z,2.6
2017-11-27T11:40:42.510Z,2.6
2017-11-27T11:42:02.206Z,2.6
2017-11-27T11:43:32.059Z,2.5
2017-11-27T11:44:51.756Z,2.6
2017-11-27T11:46:19.061Z,2.5
2017-11-27T11:47:38.759Z,2.3
2017-11-27T11:49:01.039Z,2.3
2017-11-27T11:50:20.773Z,2.3
2017-11-27T11:51:43.055Z,2.2
2017-11-27T11:53:02.761Z,2.1
2017-11-27T11:54:22.472Z,2.1
2017-11-27T11:55:47.235Z,2.1
2017-11-27T11:57:06.942Z,2.1
2017-11-27T11:58:34.242Z,2.1
2017-11-27T11:59:59.017Z,2
2017-11-27T12:01:18.738Z,2
2017-11-27T12:02:40.995Z,1.9
2017-11-27T12:04:03.218Z,2
2017-11-27T12:05:22.921Z,1.9
2017-11-27T12:06:42.675Z,2
2017-11-27T12:08:04.913Z,2.1
2017-11-27T12:09:27.188Z,2
2017-11-27T12:10:46.925Z,2
2017-11-27T12:12:06.657Z,2
2017-11-27T12:13:26.384Z,2.1
2017-11-27T12:15:03.801Z,2.1
2017-11-27T12:16:31.197Z,2
2017-11-27T12:17:50.931Z,2.1
2017-11-27T12:19:13.175Z,2.1
2017-11-27T12:20:32.895Z,2.1
2017-11-27T12:21:52.612Z,2.1
2017-11-27T12:23:12.298Z,2
2017-11-27T12:24:32.011Z,2.1
2017-11-27T12:25:51.754Z,2.1
2017-11-27T12:27:13.991Z,2.1
2017-11-27T12:28:36.250Z,2
2017-11-27T12:30:08.632Z,2.1
2017-11-27T12:31:33.406Z,2
2017-11-27T12:32:55.725Z,2
2017-11-27T12:34:15.437Z,1.9
2017-11-27T12:35:40.233Z,1.8
2017-11-27T12:36:59.939Z,1.8
2017-11-27T12:38:19.687Z,1.8
2017-11-27T12:39:39.384Z,1.6
2017-11-27T12:40:59.089Z,1.6
2017-11-27T12:42:18.823Z,1.6
2017-11-27T12:43:38.536Z,1.7
2017-11-27T12:44:58.234Z,1.7
2017-11-27T12:46:17.931Z,1.7
2017-11-27T12:47:37.630Z,1.7
2017-11-27T12:48:57.346Z,1.7
2017-11-27T12:50:22.110Z,1.7
2017-11-27T12:51:41.824Z,1.8
2017-11-27T12:53:01.533Z,1.9
2017-11-27T12:54:21.298Z,2
2017-11-27T12:55:46.084Z,2.1
2017-11-27T12:57:13.394Z,2
2017-11-27T12:58:35.653Z,2.1
2017-11-27T12:59:57.902Z,2
2017-11-27T13:01:22.668Z,1.8
2017-11-27T13:02:42.378Z,1.8
2017-11-27T13:04:02.078Z,1.8
2017-11-27T13:05:21.772Z,1.9
2017-11-27T13:06:44.022Z,1.9
2017-11-27T13:08:03.713Z,1.9
2017-11-27T13:09:48.726Z,1.9
2017-11-27T13:11:13.487Z,1.8
2017-11-27T13:12:33.211Z,1.7
2017-11-27T13:13:57.974Z,1.8
2017-11-27T13:15:17.669Z,1.9
2017-11-27T13:16:37.363Z,1.8
2017-11-27T13:18:02.125Z,2
2017-11-27T13:19:21.830Z,2
2017-11-27T13:20:44.117Z,1.9
2017-11-27T13:22:03.877Z,1.9
2017-11-27T13:23:23.576Z,2
2017-11-27T13:24:53.450Z,1.9
2017-11-27T13:26:18.249Z,1.8
2017-11-27T13:27:45.613Z,1.8
2017-11-27T13:29:20.517Z,1.9
2017-11-27T13:30:47.818Z,1.9
2017-11-27T13:32:12.573Z,2
2017-11-27T13:33:34.815Z,2
2017-11-27T13:34:54.511Z,1.9
2017-11-27T13:36:19.281Z,1.9
2017-11-27T13:37:38.991Z,1.9
2017-11-27T13:39:03.753Z,1.8
2017-11-27T13:40:26.038Z,1.8
2017-11-27T13:41:45.766Z,1.9
2017-11-27T13:43:07.995Z,1.9
2017-11-27T13:44:27.736Z,1.8
2017-11-27T13:45:55.033Z,1.9
2017-11-27T13:47:19.880Z,1.9
2017-11-27T13:48:39.572Z,1.9
2017-11-27T13:49:59.283Z,2
2017-11-27T13:51:24.053Z,1.9
2017-11-27T13:52:53.888Z,1.9
2017-11-27T13:54:18.731Z,2
2017-11-27T13:55:38.448Z,1.9
2017-11-27T13:57:00.723Z,1.9
2017-11-27T13:58:20.514Z,1.9
2017-11-27T13:59:42.793Z,1.9
2017-11-27T14:01:12.623Z,2
2017-11-27T14:02:32.321Z,2
2017-11-27T14:03:52.025Z,1.9
2017-11-27T14:05:11.721Z,2
2017-11-27T14:06:36.488Z,2.1
2017-11-27T14:07:56.211Z,2.2
2017-11-27T14:09:15.937Z,2.1
2017-11-27T14:10:35.701Z,2
2017-11-27T14:12:05.617Z,2.1
2017-11-27T14:13:25.343Z,2.2
2017-11-27T14:14:45.053Z,2.1
2017-11-27T14:16:04.753Z,2.2
2017-11-27T14:17:27.049Z,2.2
2017-11-27T14:18:46.773Z,2.2
2017-11-27T14:20:06.463Z,2.2
2017-11-27T14:21:26.160Z,2.1
2017-11-27T14:22:45.913Z,2.2
2017-11-27T14:24:05.664Z,2.2
2017-11-27T14:25:25.393Z,2.2
2017-11-27T14:26:45.114Z,2.3
2017-11-27T14:28:07.397Z,2.3
2017-11-27T14:29:27.119Z,2.2
2017-11-27T14:30:56.956Z,2.1
2017-11-27T14:32:19.180Z,2
2017-11-27T14:33:43.944Z,2.1
2017-11-27T14:35:03.640Z,2.1
2017-11-27T14:36:23.402Z,2.1
2017-11-27T14:37:43.155Z,2.1
2017-11-27T14:39:02.907Z,2.1
2017-11-27T14:40:22.621Z,2.2
2017-11-27T14:41:47.394Z,2.2
2017-11-27T14:43:07.095Z,2.4
2017-11-27T14:44:26.803Z,2.3
2017-11-27T14:45:49.044Z,2.2
2017-11-27T14:47:08.754Z,2.2
2017-11-27T14:48:28.486Z,2.1
2017-11-27T14:49:53.246Z,2.1
2017-11-27T14:51:15.510Z,2.1
2017-11-27T14:52:37.740Z,2.1
2017-11-27T14:54:00.057Z,2.1
2017-11-27T14:55:19.773Z,1.9
2017-11-27T14:56:39.552Z,2
2017-11-27T14:57:59.251Z,1.9
2017-11-27T14:59:21.474Z,1.9
2017-11-27T15:00:41.177Z,1.9
2017-11-27T15:02:00.873Z,1.8
2017-11-27T15:03:35.763Z,1.6
2017-11-27T15:05:05.617Z,1.6
2017-11-27T15:06:27.891Z,1.7
2017-11-27T15:08:00.282Z,1.7
2017-11-27T15:09:22.511Z,1.7
2017-11-27T15:10:42.232Z,1.8
2017-11-27T15:12:01.966Z,1.6
2017-11-27T15:13:21.666Z,1.7
2017-11-27T15:14:41.373Z,1.9
2017-11-27T15:16:08.659Z,1.9
2017-11-27T15:17:30.908Z,2
2017-11-27T15:18:53.147Z,2
2017-11-27T15:20:17.972Z,2.1
2017-11-27T15:21:42.727Z,2
2017-11-27T15:23:07.507Z,1.9
2017-11-27T15:24:27.208Z,2
2017-11-27T15:25:46.919Z,2
2017-11-27T15:27:11.681Z,1.9
2017-11-27T15:28:36.509Z,2
2017-11-27T15:29:58.735Z,2.1
2017-11-27T15:31:33.670Z,2
2017-11-27T15:32:55.921Z,1.9
2017-11-27T15:34:18.165Z,2
2017-11-27T15:35:37.885Z,1.9
2017-11-27T15:36:57.617Z,1.9
2017-11-27T15:38:17.307Z,1.8
2017-11-27T15:39:39.546Z,1.9
2017-11-27T15:41:01.824Z,1.9
2017-11-27T15:42:29.143Z,1.9
2017-11-27T15:43:48.854Z,2
2017-11-27T15:45:11.128Z,2
2017-11-27T15:46:33.350Z,2
2017-11-27T15:47:53.049Z,1.8
2017-11-27T15:49:15.349Z,1.9
2017-11-27T15:50:35.098Z,2
2017-11-27T15:51:57.326Z,2.1
2017-11-27T15:53:22.093Z,2.1
2017-11-27T15:54:41.847Z,2
2017-11-27T15:56:06.644Z,2
2017-11-27T15:57:31.404Z,2
2017-11-27T15:58:53.644Z,2
2017-11-27T16:00:13.340Z,2
2017-11-27T16:01:38.106Z,1.8
2017-11-27T16:03:00.368Z,1.8
2017-11-27T16:04:22.616Z,2
2017-11-27T16:05:42.359Z,2.1
2017-11-27T16:07:12.186Z,2
2017-11-27T16:08:31.902Z,2
2017-11-27T16:09:51.590Z,2.1
2017-11-27T16:11:29.035Z,1.9
2017-11-27T16:12:53.792Z,2
2017-11-27T16:14:21.109Z,2.1
2017-11-27T16:15:45.860Z,2
2017-11-27T16:17:08.098Z,2.1
2017-11-27T16:18:35.473Z,2.1
2017-11-27T16:20:00.260Z,2.1
2017-11-27T16:21:22.486Z,2
2017-11-27T16:22:42.192Z,2.1
2017-11-27T16:24:12.040Z,2.1
2017-11-27T16:25:31.738Z,2.1
2017-11-27T16:26:53.961Z,2.2
2017-11-27T16:28:13.666Z,2.1
2017-11-27T16:29:33.377Z,2.1
2017-11-27T16:30:55.613Z,2
2017-11-27T16:32:15.341Z,2.1
2017-11-27T16:33:37.606Z,2.1
2017-11-27T16:34:59.918Z,2.1
2017-11-27T16:36:19.656Z,2.1
2017-11-27T16:37:39.359Z,2
2017-11-27T16:38:59.104Z,2
2017-11-27T16:40:18.810Z,2
2017-11-27T16:41:38.515Z,2.1
2017-11-27T16:43:03.312Z,2.1
2017-11-27T16:44:23.024Z,2.1
2017-11-27T16:45:52.867Z,2.1
2017-11-27T16:47:12.566Z,2.1
2017-11-27T16:48:32.270Z,2
2017-11-27T16:49:54.528Z,1.7
2017-11-27T16:51:24.372Z,1.9
2017-11-27T16:52:44.100Z,2
2017-11-27T16:54:03.809Z,2
2017-11-27T16:55:23.505Z,2
2017-11-27T16:56:53.343Z,2.1
2017-11-27T16:58:13.053Z,2
2017-11-27T16:59:35.294Z,2.1
2017-11-27T17:00:55.082Z,2.1
2017-11-27T17:02:14.835Z,2.1
2017-11-27T17:03:34.578Z,2
2017-11-27T17:04:54.345Z,2.1
2017-11-27T17:06:14.062Z,2.1
2017-11-27T17:07:33.787Z,2.1
2017-11-27T17:08:56.025Z,2.1
2017-11-27T17:10:15.729Z,2.1
2017-11-27T17:11:38.019Z,2.1
2017-11-27T17:12:57.772Z,2.1
2017-11-27T17:14:17.479Z,2.1
2017-11-27T17:15:37.200Z,2.2
2017-11-27T17:16:56.893Z,2.3
2017-11-27T17:18:19.146Z,2.2
2017-11-27T17:19:38.897Z,2.2
2017-11-27T17:20:58.621Z,2.2
2017-11-27T17:22:18.347Z,2.3
2017-11-27T17:23:38.073Z,2.2
2017-11-27T17:25:00.298Z,2.2
2017-11-27T17:26:20.068Z,2.1
2017-11-27T17:27:42.347Z,2.1
2017-11-27T17:29:02.100Z,2.2
2017-11-27T17:30:24.359Z,2.2
2017-11-27T17:31:44.121Z,2.2
2017-11-27T17:33:06.406Z,2.1
2017-11-27T17:34:31.238Z,2.2
2017-11-27T17:35:53.481Z,2.2
2017-11-27T17:37:20.781Z,2.2
2017-11-27T17:38:45.600Z,2.2
2017-11-27T17:40:05.319Z,2.2
2017-11-27T17:41:27.565Z,2.2
2017-11-27T17:42:49.818Z,2.2
2017-11-27T17:44:09.608Z,2.2
2017-11-27T17:45:29.337Z,2.2
2017-11-27T17:46:51.630Z,2.1
2017-11-27T17:48:13.863Z,2.2
2017-11-27T17:49:43.716Z,2.2
2017-11-27T17:51:03.425Z,2.2
2017-11-27T17:52:28.188Z,2.2
2017-11-27T17:53:50.424Z,2.2
2017-11-27T17:55:10.137Z,2
2017-11-27T17:56:29.899Z,1.9
2017-11-27T17:57:52.139Z,2
2017-11-27T17:59:19.444Z,2
2017-11-27T18:00:39.167Z,2
2017-11-27T18:02:04.002Z,2.1
2017-11-27T18:03:26.284Z,2.1
2017-11-27T18:04:45.986Z,2.2
2017-11-27T18:06:05.674Z,2.2
2017-11-27T18:07:27.955Z,2.2
2017-11-27T18:08:47.669Z,2.2
2017-11-27T18:10:14.977Z,2.2
2017-11-27T18:11:34.701Z,2.2
2017-11-27T18:12:54.448Z,2.2
2017-11-27T18:14:14.218Z,2.2
2017-11-27T18:15:33.970Z,2.2
2017-11-27T18:16:58.759Z,2.2
2017-11-27T18:18:28.620Z,2.2
2017-11-27T18:19:50.865Z,2.3
2017-11-27T18:21:13.152Z,2.3
2017-11-27T18:22:32.856Z,2.3
2017-11-27T18:23:52.607Z,2.4
2017-11-27T18:25:12.308Z,2.3
2017-11-27T18:26:32.043Z,2.3
2017-11-27T18:27:56.792Z,2.3
2017-11-27T18:29:16.498Z,2.3
2017-11-27T18:30:38.788Z,2.3
2017-11-27T18:32:01.010Z,2.3
2017-11-27T18:33:20.715Z,2.3
2017-11-27T18:34:40.459Z,2.4
2017-11-27T18:36:17.951Z,2.4
2017-11-27T18:37:40.173Z,2.4
2017-11-27T18:39:04.931Z,2.5
2017-11-27T18:40:24.675Z,2.4
2017-11-27T18:41:49.461Z,2.4
2017-11-27T18:43:21.830Z,2.4
2017-11-27T18:44:44.105Z,2.4
2017-11-27T18:46:03.827Z,2.4
2017-11-27T18:47:26.114Z,2.4
2017-11-27T18:48:48.355Z,2.5
2017-11-27T18:50:08.105Z,2.5
2017-11-27T18:51:27.816Z,2.5
2017-11-27T18:52:50.037Z,2.4
2017-11-27T18:54:09.756Z,2.4
2017-11-27T18:55:29.474Z,2.4
2017-11-27T18:56:49.263Z,2.4
2017-11-27T18:58:09.025Z,2.5
2017-11-27T18:59:28.721Z,2.4
2017-11-27T19:00:50.970Z,2.4
2017-11-27T19:02:15.796Z,2.5
2017-11-27T19:03:35.537Z,2.5